Share

Chester, NE (68327)

Hebron Municipal (KHJH) Elev 1467 ft | 40.15 °N, 97.59 °W | Change Station

Current weather conditions updated 7 minutes ago

Clear
Clear
65 °F
Feels Like 65 °F
N
18
Wind Variable Wind from South
Gusts 25 mph
Sunrise 6:48 AM
Sunset 8:12 PM
Moon Waning Gibbous

Today is forecast to be Much Warmer than yesterday.

Pressure 30.16 in
Visibility 7.0 miles
Clouds Clear
Dew Point 41 °F
Humidity 41%
Rainfall 0.00 in
Snow Depth Not available.
UV 10 out of 16
Pollen 10.80 out of 12
Air Quality Not available.
Flu Activity Sporadic
METAR KHJH 181835Z AUTO 18016G22KT 7SM CLR 19/05 A3016 RMK AO2 T01850050

More Conditions Fewer Conditions

Pressure 30.16 in
Visibility 7.0 miles
Clouds Clear
Dew Point 41 °F
Humidity 41%
Rainfall 0.00 in
Snow Depth Not available.
UV 10 out of 16
Pollen 10.80 out of 12
Air Quality Not available.
Flu Activity Sporadic
METAR KHJH 181835Z AUTO 18016G22KT 7SM CLR 19/05 A3016 RMK AO2 T01850050

More Conditions Fewer Conditions

10-Day Weather Forecast

Almanac

Astronomy

Apr. 18, 2014 Rise Set
Actual Time 6:48 AM CDT 8:12 PM CDT
Civil Twilight 6:19 AM CDT 8:40 PM CDT
Nautical Twilight 5:45 AM CDT 9:14 PM CDT
Astronomical Twilight 5:10 AM CDT 9:50 PM CDT
Moon 11:58 PM CDT 9:11 AM CDT
Length of Visible Light 14h 20m
Length of Day
13h 23m
Tomorrow will be 2m 28s longer.
Waning Gibbous, 86% of the Moon is Illuminated
Today
Waning Gibbous
Apr 22
Last Quarter
Apr 29
New
May 6
First Quarter
May 14
Full

Today's Extremes

State Highs State Lows

Community

  • What's for Lunch?
    What's for Lunch?
  • SUNRISE THROUGH THE TREES.
    SUNRISE THROUGH THE TREES.
  • Dog Wood Blossoms
    Dog Wood Blossoms
  • Morning Light
    Morning Light
  • New Day
    New Day

WunderPhotos

Upload Photos

1,702,455 photos uploaded!

Nearby

Snow Depth

Station Depth Elevation
No new snow has been reported.

Coastal Water Temperatures

Place Temperature
No Stations Reporting

Earthquake Activity

City Distance Mag. Time & Date
No recent earthquake activity has been reported nearby.
Minimum magnitude displayed is 2.5.

Nearby Weather Stations

Station Location Temp. Dew Point Humidity Wind Precip. Elev Updated Type
2 S of Pawnee, Courtland, KS 67.5 °F 44 °F 42% SSE  at  21.3 mph 0.00 in / hr 1552 ft 1:42 PM CDT Rapid Fire
Crystal Springs Campground, Fairbury, NE 65.6 °F 46 °F 49% South  at  16.0 mph 0.00 in / hr 1378 ft 1:42 PM CDT Rapid Fire
North Superior, Superior, NE 64.2 °F 43 °F 46% South  at  0.0 mph 0.00 in / hr 1640 ft 1:42 PM CDT Rapid Fire

Show More Stations Show Fewer Stations

What do you think?

We're not finished. Please let us know what you like, what you don't like, and what you are still missing.